sensor_id;sensor_type;location;lat;lon;timestamp;P1;durP1;ratioP1;P2;durP2;ratioP2
4290;SDS011;2159;50.906;7.152;2023-08-17T00:02:12;10.17;;;8.70;;
4290;SDS011;2159;50.906;7.152;2023-08-17T00:04:40;11.40;;;8.10;;
4290;SDS011;2159;50.906;7.152;2023-08-17T00:07:07;10.83;;;8.30;;
4290;SDS011;2159;50.906;7.152;2023-08-17T00:09:36;11.60;;;8.20;;
4290;SDS011;2159;50.906;7.152;2023-08-17T00:12:04;12.63;;;8.50;;
4290;SDS011;2159;50.906;7.152;2023-08-17T00:14:31;16.40;;;8.73;;
4290;SDS011;2159;50.906;7.152;2023-08-17T00:16:59;12.03;;;8.27;;
4290;SDS011;2159;50.906;7.152;2023-08-17T00:19:26;10.93;;;8.40;;
4290;SDS011;2159;50.906;7.152;2023-08-17T00:21:54;11.10;;;7.97;;
4290;SDS011;2159;50.906;7.152;2023-08-17T00:24:22;14.43;;;8.40;;
4290;SDS011;2159;50.906;7.152;2023-08-17T00:26:51;11.73;;;8.00;;
4290;SDS011;2159;50.906;7.152;2023-08-17T00:29:18;13.50;;;8.83;;
4290;SDS011;2159;50.906;7.152;2023-08-17T00:31:47;9.17;;;8.27;;
4290;SDS011;2159;50.906;7.152;2023-08-17T00:34:14;13.30;;;8.60;;
4290;SDS011;2159;50.906;7.152;2023-08-17T00:36:42;10.23;;;8.50;;
4290;SDS011;2159;50.906;7.152;2023-08-17T00:39:09;14.03;;;8.77;;
4290;SDS011;2159;50.906;7.152;2023-08-17T00:41:37;10.30;;;8.20;;
4290;SDS011;2159;50.906;7.152;2023-08-17T00:44:06;14.03;;;8.43;;
4290;SDS011;2159;50.906;7.152;2023-08-17T00:46:33;8.53;;;7.73;;
4290;SDS011;2159;50.906;7.152;2023-08-17T00:49:01;12.63;;;8.60;;
4290;SDS011;2159;50.906;7.152;2023-08-17T00:51:28;10.40;;;8.50;;
4290;SDS011;2159;50.906;7.152;2023-08-17T00:53:57;11.23;;;8.93;;
4290;SDS011;2159;50.906;7.152;2023-08-17T00:56:25;16.20;;;8.70;;
4290;SDS011;2159;50.906;7.152;2023-08-17T00:58:53;12.97;;;9.03;;
4290;SDS011;2159;50.906;7.152;2023-08-17T01:01:22;9.83;;;8.83;;
4290;SDS011;2159;50.906;7.152;2023-08-17T01:03:50;12.47;;;9.80;;
4290;SDS011;2159;50.906;7.152;2023-08-17T01:06:17;12.40;;;9.07;;
4290;SDS011;2159;50.906;7.152;2023-08-17T01:08:45;11.07;;;8.80;;
4290;SDS011;2159;50.906;7.152;2023-08-17T01:11:13;12.87;;;9.43;;
4290;SDS011;2159;50.906;7.152;2023-08-17T01:13:49;12.30;;;9.20;;
4290;SDS011;2159;50.906;7.152;2023-08-17T01:16:20;14.87;;;9.60;;
4290;SDS011;2159;50.906;7.152;2023-08-17T01:18:50;13.20;;;8.73;;
4290;SDS011;2159;50.906;7.152;2023-08-17T01:21:18;9.70;;;8.77;;
4290;SDS011;2159;50.906;7.152;2023-08-17T01:23:49;13.30;;;9.00;;
4290;SDS011;2159;50.906;7.152;2023-08-17T01:26:17;8.93;;;8.03;;
4290;SDS011;2159;50.906;7.152;2023-08-17T01:28:45;9.67;;;8.67;;
4290;SDS011;2159;50.906;7.152;2023-08-17T01:31:14;10.93;;;8.60;;
4290;SDS011;2159;50.906;7.152;2023-08-17T01:33:44;11.87;;;8.30;;
4290;SDS011;2159;50.906;7.152;2023-08-17T01:36:16;9.90;;;8.47;;
4290;SDS011;2159;50.906;7.152;2023-08-17T01:38:45;12.53;;;8.20;;
4290;SDS011;2159;50.906;7.152;2023-08-17T01:41:14;9.80;;;7.93;;
4290;SDS011;2159;50.906;7.152;2023-08-17T01:43:43;15.63;;;8.50;;
4290;SDS011;2159;50.906;7.152;2023-08-17T01:46:14;11.50;;;7.73;;
4290;SDS011;2159;50.906;7.152;2023-08-17T01:48:42;11.87;;;7.83;;
4290;SDS011;2159;50.906;7.152;2023-08-17T01:51:10;13.00;;;8.10;;
4290;SDS011;2159;50.906;7.152;2023-08-17T01:53:38;10.17;;;7.57;;
4290;SDS011;2159;50.906;7.152;2023-08-17T01:56:05;13.90;;;7.60;;
4290;SDS011;2159;50.906;7.152;2023-08-17T01:58:34;8.77;;;7.33;;
4290;SDS011;2159;50.906;7.152;2023-08-17T02:01:02;7.90;;;7.07;;
4290;SDS011;2159;50.906;7.152;2023-08-17T02:03:29;7.67;;;6.97;;
4290;SDS011;2159;50.906;7.152;2023-08-17T02:05:58;7.10;;;6.40;;
4290;SDS011;2159;50.906;7.152;2023-08-17T02:08:25;9.30;;;7.00;;
4290;SDS011;2159;50.906;7.152;2023-08-17T02:10:53;11.60;;;7.20;;
4290;SDS011;2159;50.906;7.152;2023-08-17T02:13:21;13.70;;;7.23;;
4290;SDS011;2159;50.906;7.152;2023-08-17T02:15:49;7.00;;;6.40;;
4290;SDS011;2159;50.906;7.152;2023-08-17T02:18:17;10.13;;;6.93;;
4290;SDS011;2159;50.906;7.152;2023-08-17T02:20:45;11.50;;;6.70;;
4290;SDS011;2159;50.906;7.152;2023-08-17T02:23:12;9.43;;;6.63;;
4290;SDS011;2159;50.906;7.152;2023-08-17T02:25:40;7.30;;;6.30;;
4290;SDS011;2159;50.906;7.152;2023-08-17T02:28:07;7.07;;;5.80;;
4290;SDS011;2159;50.906;7.152;2023-08-17T02:30:35;7.37;;;6.63;;
4290;SDS011;2159;50.906;7.152;2023-08-17T02:33:04;12.00;;;6.77;;
4290;SDS011;2159;50.906;7.152;2023-08-17T02:35:31;10.50;;;6.90;;
4290;SDS011;2159;50.906;7.152;2023-08-17T02:37:59;7.30;;;5.73;;
4290;SDS011;2159;50.906;7.152;2023-08-17T02:40:26;8.13;;;6.60;;
4290;SDS011;2159;50.906;7.152;2023-08-17T02:42:54;10.53;;;6.50;;
4290;SDS011;2159;50.906;7.152;2023-08-17T02:45:21;9.27;;;6.33;;
4290;SDS011;2159;50.906;7.152;2023-08-17T02:47:49;7.83;;;6.17;;
4290;SDS011;2159;50.906;7.152;2023-08-17T02:50:18;6.83;;;6.03;;
4290;SDS011;2159;50.906;7.152;2023-08-17T02:52:45;8.00;;;5.83;;
4290;SDS011;2159;50.906;7.152;2023-08-17T02:55:13;9.87;;;5.50;;
4290;SDS011;2159;50.906;7.152;2023-08-17T02:57:40;6.70;;;5.70;;
4290;SDS011;2159;50.906;7.152;2023-08-17T03:00:08;7.50;;;5.93;;
4290;SDS011;2159;50.906;7.152;2023-08-17T03:02:36;7.00;;;6.30;;
4290;SDS011;2159;50.906;7.152;2023-08-17T03:05:03;8.10;;;5.80;;
4290;SDS011;2159;50.906;7.152;2023-08-17T03:07:32;6.87;;;6.27;;
4290;SDS011;2159;50.906;7.152;2023-08-17T03:10:00;6.10;;;5.50;;
4290;SDS011;2159;50.906;7.152;2023-08-17T03:12:27;9.20;;;5.90;;
4290;SDS011;2159;50.906;7.152;2023-08-17T03:14:55;8.13;;;6.17;;
4290;SDS011;2159;50.906;7.152;2023-08-17T03:17:22;10.10;;;6.63;;
4290;SDS011;2159;50.906;7.152;2023-08-17T03:19:50;8.33;;;6.57;;
4290;SDS011;2159;50.906;7.152;2023-08-17T03:22:18;11.50;;;6.30;;
4290;SDS011;2159;50.906;7.152;2023-08-17T03:24:46;5.97;;;5.33;;
4290;SDS011;2159;50.906;7.152;2023-08-17T03:27:14;7.33;;;5.67;;
4290;SDS011;2159;50.906;7.152;2023-08-17T03:29:41;8.23;;;6.20;;
4290;SDS011;2159;50.906;7.152;2023-08-17T03:32:09;7.27;;;6.20;;
4290;SDS011;2159;50.906;7.152;2023-08-17T03:34:36;9.33;;;6.00;;
4290;SDS011;2159;50.906;7.152;2023-08-17T03:37:04;8.80;;;6.20;;
4290;SDS011;2159;50.906;7.152;2023-08-17T03:39:32;7.90;;;5.70;;
4290;SDS011;2159;50.906;7.152;2023-08-17T03:42:01;11.03;;;6.20;;
4290;SDS011;2159;50.906;7.152;2023-08-17T03:44:28;7.13;;;6.00;;
4290;SDS011;2159;50.906;7.152;2023-08-17T03:46:55;6.97;;;5.50;;
4290;SDS011;2159;50.906;7.152;2023-08-17T03:49:23;6.73;;;6.00;;
4290;SDS011;2159;50.906;7.152;2023-08-17T03:51:50;7.97;;;5.63;;
4290;SDS011;2159;50.906;7.152;2023-08-17T03:54:18;9.03;;;6.60;;
4290;SDS011;2159;50.906;7.152;2023-08-17T03:56:46;12.30;;;6.10;;
4290;SDS011;2159;50.906;7.152;2023-08-17T03:59:14;13.30;;;6.20;;
4290;SDS011;2159;50.906;7.152;2023-08-17T04:01:42;7.00;;;6.10;;
4290;SDS011;2159;50.906;7.152;2023-08-17T04:04:10;8.43;;;6.27;;
4290;SDS011;2159;50.906;7.152;2023-08-17T04:06:37;7.33;;;5.97;;
4290;SDS011;2159;50.906;7.152;2023-08-17T04:09:05;9.23;;;6.03;;
4290;SDS011;2159;50.906;7.152;2023-08-17T04:11:34;9.30;;;6.33;;
4290;SDS011;2159;50.906;7.152;2023-08-17T04:14:02;9.77;;;6.47;;
4290;SDS011;2159;50.906;7.152;2023-08-17T04:16:31;6.90;;;6.17;;
4290;SDS011;2159;50.906;7.152;2023-08-17T04:18:59;8.20;;;6.50;;
4290;SDS011;2159;50.906;7.152;2023-08-17T04:21:26;8.00;;;6.60;;
4290;SDS011;2159;50.906;7.152;2023-08-17T04:23:55;13.90;;;7.10;;
4290;SDS011;2159;50.906;7.152;2023-08-17T04:26:22;8.27;;;6.90;;
4290;SDS011;2159;50.906;7.152;2023-08-17T04:28:51;7.33;;;6.40;;
4290;SDS011;2159;50.906;7.152;2023-08-17T04:31:18;10.63;;;6.70;;
4290;SDS011;2159;50.906;7.152;2023-08-17T04:33:47;9.67;;;6.67;;
4290;SDS011;2159;50.906;7.152;2023-08-17T04:36:15;11.83;;;7.03;;
4290;SDS011;2159;50.906;7.152;2023-08-17T04:38:42;7.73;;;6.67;;
4290;SDS011;2159;50.906;7.152;2023-08-17T04:41:10;7.40;;;6.70;;
4290;SDS011;2159;50.906;7.152;2023-08-17T04:43:37;8.67;;;7.77;;
4290;SDS011;2159;50.906;7.152;2023-08-17T04:46:05;9.30;;;7.57;;
4290;SDS011;2159;50.906;7.152;2023-08-17T04:48:32;10.57;;;7.20;;
4290;SDS011;2159;50.906;7.152;2023-08-17T04:51:01;11.43;;;7.20;;
4290;SDS011;2159;50.906;7.152;2023-08-17T04:53:29;16.43;;;8.30;;
4290;SDS011;2159;50.906;7.152;2023-08-17T04:55:56;9.13;;;7.00;;
4290;SDS011;2159;50.906;7.152;2023-08-17T04:58:24;9.57;;;8.17;;
4290;SDS011;2159;50.906;7.152;2023-08-17T05:00:51;9.17;;;7.23;;
4290;SDS011;2159;50.906;7.152;2023-08-17T05:03:19;10.30;;;7.40;;
4290;SDS011;2159;50.906;7.152;2023-08-17T05:05:58;11.13;;;8.17;;
4290;SDS011;2159;50.906;7.152;2023-08-17T05:08:27;11.93;;;8.47;;
4290;SDS011;2159;50.906;7.152;2023-08-17T05:10:55;9.67;;;7.63;;
4290;SDS011;2159;50.906;7.152;2023-08-17T05:13:22;10.30;;;8.03;;
4290;SDS011;2159;50.906;7.152;2023-08-17T05:15:50;12.20;;;8.73;;
4290;SDS011;2159;50.906;7.152;2023-08-17T05:18:17;14.63;;;8.13;;
4290;SDS011;2159;50.906;7.152;2023-08-17T05:20:45;10.80;;;8.40;;
4290;SDS011;2159;50.906;7.152;2023-08-17T05:23:12;11.07;;;7.90;;
4290;SDS011;2159;50.906;7.152;2023-08-17T05:25:41;10.40;;;7.60;;
4290;SDS011;2159;50.906;7.152;2023-08-17T05:28:08;9.57;;;8.00;;
4290;SDS011;2159;50.906;7.152;2023-08-17T05:30:36;9.73;;;7.97;;
4290;SDS011;2159;50.906;7.152;2023-08-17T05:33:03;9.13;;;7.90;;
4290;SDS011;2159;50.906;7.152;2023-08-17T05:35:31;11.70;;;8.33;;
4290;SDS011;2159;50.906;7.152;2023-08-17T05:37:59;8.10;;;7.30;;
4290;SDS011;2159;50.906;7.152;2023-08-17T05:40:27;8.30;;;7.47;;
4290;SDS011;2159;50.906;7.152;2023-08-17T05:42:57;10.70;;;8.50;;
4290;SDS011;2159;50.906;7.152;2023-08-17T05:45:25;12.40;;;8.50;;
4290;SDS011;2159;50.906;7.152;2023-08-17T05:47:52;12.33;;;9.33;;
4290;SDS011;2159;50.906;7.152;2023-08-17T05:50:20;12.57;;;9.47;;
4290;SDS011;2159;50.906;7.152;2023-08-17T05:52:48;10.80;;;9.00;;
4290;SDS011;2159;50.906;7.152;2023-08-17T05:55:15;11.13;;;9.20;;
4290;SDS011;2159;50.906;7.152;2023-08-17T05:57:43;14.13;;;9.03;;
4290;SDS011;2159;50.906;7.152;2023-08-17T06:00:12;11.77;;;9.60;;
4290;SDS011;2159;50.906;7.152;2023-08-17T06:02:40;13.27;;;9.77;;
4290;SDS011;2159;50.906;7.152;2023-08-17T06:05:07;14.60;;;9.97;;
4290;SDS011;2159;50.906;7.152;2023-08-17T06:07:35;12.20;;;9.97;;
4290;SDS011;2159;50.906;7.152;2023-08-17T06:10:03;13.30;;;9.40;;
4290;SDS011;2159;50.906;7.152;2023-08-17T06:12:32;12.87;;;9.80;;
4290;SDS011;2159;50.906;7.152;2023-08-17T06:15:01;14.60;;;9.93;;
4290;SDS011;2159;50.906;7.152;2023-08-17T06:17:29;13.40;;;9.40;;
4290;SDS011;2159;50.906;7.152;2023-08-17T06:19:57;15.47;;;9.80;;
4290;SDS011;2159;50.906;7.152;2023-08-17T06:22:24;14.53;;;10.10;;
4290;SDS011;2159;50.906;7.152;2023-08-17T06:24:52;14.87;;;9.83;;
4290;SDS011;2159;50.906;7.152;2023-08-17T06:27:19;15.33;;;10.03;;
4290;SDS011;2159;50.906;7.152;2023-08-17T06:29:47;14.67;;;10.87;;
4290;SDS011;2159;50.906;7.152;2023-08-17T06:32:14;18.20;;;9.80;;
4290;SDS011;2159;50.906;7.152;2023-08-17T06:34:43;13.90;;;10.07;;
4290;SDS011;2159;50.906;7.152;2023-08-17T06:37:11;14.40;;;10.30;;
4290;SDS011;2159;50.906;7.152;2023-08-17T06:39:39;14.17;;;9.93;;
4290;SDS011;2159;50.906;7.152;2023-08-17T06:42:06;12.57;;;9.50;;
4290;SDS011;2159;50.906;7.152;2023-08-17T06:44:34;15.97;;;9.50;;
4290;SDS011;2159;50.906;7.152;2023-08-17T06:47:01;13.73;;;8.87;;
4290;SDS011;2159;50.906;7.152;2023-08-17T06:49:30;12.10;;;9.10;;
4290;SDS011;2159;50.906;7.152;2023-08-17T06:51:59;13.90;;;8.97;;
4290;SDS011;2159;50.906;7.152;2023-08-17T06:54:27;16.43;;;9.43;;
4290;SDS011;2159;50.906;7.152;2023-08-17T06:56:54;14.77;;;9.30;;
4290;SDS011;2159;50.906;7.152;2023-08-17T06:59:22;10.63;;;8.97;;
4290;SDS011;2159;50.906;7.152;2023-08-17T07:01:49;14.60;;;9.90;;
4290;SDS011;2159;50.906;7.152;2023-08-17T07:04:17;12.60;;;9.80;;
4290;SDS011;2159;50.906;7.152;2023-08-17T07:06:44;11.00;;;9.10;;
4290;SDS011;2159;50.906;7.152;2023-08-17T07:09:13;11.67;;;8.20;;
4290;SDS011;2159;50.906;7.152;2023-08-17T07:11:40;11.37;;;8.27;;
4290;SDS011;2159;50.906;7.152;2023-08-17T07:14:08;10.30;;;8.83;;
4290;SDS011;2159;50.906;7.152;2023-08-17T07:16:35;11.63;;;8.60;;
4290;SDS011;2159;50.906;7.152;2023-08-17T07:19:03;11.40;;;8.80;;
4290;SDS011;2159;50.906;7.152;2023-08-17T07:21:31;8.93;;;8.03;;
4290;SDS011;2159;50.906;7.152;2023-08-17T07:24:05;12.10;;;8.40;;
4290;SDS011;2159;50.906;7.152;2023-08-17T07:26:39;10.17;;;8.20;;
4290;SDS011;2159;50.906;7.152;2023-08-17T07:29:07;11.83;;;8.00;;
4290;SDS011;2159;50.906;7.152;2023-08-17T07:31:34;11.63;;;7.83;;
4290;SDS011;2159;50.906;7.152;2023-08-17T07:34:03;8.30;;;7.50;;
4290;SDS011;2159;50.906;7.152;2023-08-17T07:36:31;12.03;;;7.90;;
4290;SDS011;2159;50.906;7.152;2023-08-17T07:38:58;8.43;;;7.60;;
4290;SDS011;2159;50.906;7.152;2023-08-17T07:41:26;11.70;;;8.10;;
4290;SDS011;2159;50.906;7.152;2023-08-17T07:43:55;12.87;;;7.80;;
4290;SDS011;2159;50.906;7.152;2023-08-17T07:46:22;13.43;;;8.40;;
4290;SDS011;2159;50.906;7.152;2023-08-17T07:48:50;15.70;;;8.23;;
4290;SDS011;2159;50.906;7.152;2023-08-17T07:51:17;10.70;;;8.60;;
4290;SDS011;2159;50.906;7.152;2023-08-17T07:53:45;10.10;;;8.20;;
4290;SDS011;2159;50.906;7.152;2023-08-17T07:56:13;10.40;;;8.53;;
4290;SDS011;2159;50.906;7.152;2023-08-17T07:58:40;11.27;;;7.57;;
4290;SDS011;2159;50.906;7.152;2023-08-17T08:01:09;10.80;;;8.40;;
4290;SDS011;2159;50.906;7.152;2023-08-17T08:03:36;9.10;;;7.83;;
4290;SDS011;2159;50.906;7.152;2023-08-17T08:06:04;9.83;;;8.13;;
4290;SDS011;2159;50.906;7.152;2023-08-17T08:08:31;8.53;;;7.23;;
4290;SDS011;2159;50.906;7.152;2023-08-17T08:10:59;10.50;;;8.00;;
4290;SDS011;2159;50.906;7.152;2023-08-17T08:13:26;11.93;;;7.50;;
4290;SDS011;2159;50.906;7.152;2023-08-17T08:15:54;12.23;;;8.13;;
4290;SDS011;2159;50.906;7.152;2023-08-17T08:18:23;10.40;;;7.73;;
4290;SDS011;2159;50.906;7.152;2023-08-17T08:20:50;9.93;;;7.77;;
4290;SDS011;2159;50.906;7.152;2023-08-17T08:23:18;9.83;;;7.60;;
4290;SDS011;2159;50.906;7.152;2023-08-17T08:25:45;14.40;;;8.50;;
4290;SDS011;2159;50.906;7.152;2023-08-17T08:28:13;11.33;;;7.33;;
4290;SDS011;2159;50.906;7.152;2023-08-17T08:30:40;9.03;;;7.57;;
4290;SDS011;2159;50.906;7.152;2023-08-17T08:33:07;10.37;;;8.13;;
4290;SDS011;2159;50.906;7.152;2023-08-17T08:35:36;18.77;;;7.90;;
4290;SDS011;2159;50.906;7.152;2023-08-17T08:38:05;12.03;;;7.80;;
4290;SDS011;2159;50.906;7.152;2023-08-17T08:40:33;10.27;;;7.33;;
4290;SDS011;2159;50.906;7.152;2023-08-17T08:43:02;9.43;;;6.93;;
4290;SDS011;2159;50.906;7.152;2023-08-17T08:45:29;10.63;;;7.43;;
4290;SDS011;2159;50.906;7.152;2023-08-17T08:47:57;8.97;;;7.10;;
4290;SDS011;2159;50.906;7.152;2023-08-17T08:50:25;8.07;;;6.57;;
4290;SDS011;2159;50.906;7.152;2023-08-17T08:52:57;10.60;;;6.60;;
4290;SDS011;2159;50.906;7.152;2023-08-17T08:55:26;9.20;;;6.47;;
4290;SDS011;2159;50.906;7.152;2023-08-17T08:57:55;8.77;;;6.43;;
4290;SDS011;2159;50.906;7.152;2023-08-17T09:00:23;9.90;;;7.03;;
4290;SDS011;2159;50.906;7.152;2023-08-17T09:02:51;9.57;;;6.00;;
4290;SDS011;2159;50.906;7.152;2023-08-17T09:05:19;6.77;;;5.50;;
4290;SDS011;2159;50.906;7.152;2023-08-17T09:07:48;9.97;;;6.63;;
4290;SDS011;2159;50.906;7.152;2023-08-17T09:10:17;7.90;;;5.93;;
4290;SDS011;2159;50.906;7.152;2023-08-17T09:12:45;10.93;;;6.13;;
4290;SDS011;2159;50.906;7.152;2023-08-17T09:15:15;6.97;;;6.13;;
4290;SDS011;2159;50.906;7.152;2023-08-17T09:17:42;8.73;;;6.90;;
4290;SDS011;2159;50.906;7.152;2023-08-17T09:20:10;10.10;;;6.30;;
4290;SDS011;2159;50.906;7.152;2023-08-17T09:22:39;7.13;;;6.30;;
4290;SDS011;2159;50.906;7.152;2023-08-17T09:25:07;7.00;;;6.40;;
4290;SDS011;2159;50.906;7.152;2023-08-17T09:27:36;8.53;;;6.60;;
4290;SDS011;2159;50.906;7.152;2023-08-17T09:30:04;7.43;;;6.17;;
4290;SDS011;2159;50.906;7.152;2023-08-17T09:32:32;9.73;;;7.67;;
4290;SDS011;2159;50.906;7.152;2023-08-17T09:35:00;8.50;;;7.33;;
4290;SDS011;2159;50.906;7.152;2023-08-17T09:37:28;7.77;;;6.97;;
4290;SDS011;2159;50.906;7.152;2023-08-17T09:39:55;9.53;;;6.23;;
4290;SDS011;2159;50.906;7.152;2023-08-17T09:42:23;13.50;;;7.10;;
4290;SDS011;2159;50.906;7.152;2023-08-17T09:44:53;12.87;;;7.03;;
4290;SDS011;2159;50.906;7.152;2023-08-17T09:47:22;8.97;;;8.07;;
4290;SDS011;2159;50.906;7.152;2023-08-17T09:49:50;9.53;;;7.57;;
4290;SDS011;2159;50.906;7.152;2023-08-17T09:52:18;10.77;;;7.00;;
4290;SDS011;2159;50.906;7.152;2023-08-17T09:54:46;8.57;;;7.63;;
4290;SDS011;2159;50.906;7.152;2023-08-17T09:57:14;8.33;;;7.10;;
4290;SDS011;2159;50.906;7.152;2023-08-17T09:59:47;10.57;;;7.40;;
4290;SDS011;2159;50.906;7.152;2023-08-17T10:02:23;9.30;;;7.60;;
4290;SDS011;2159;50.906;7.152;2023-08-17T10:04:52;11.67;;;7.87;;
4290;SDS011;2159;50.906;7.152;2023-08-17T10:07:19;10.00;;;8.17;;
4290;SDS011;2159;50.906;7.152;2023-08-17T10:09:50;10.43;;;7.30;;
4290;SDS011;2159;50.906;7.152;2023-08-17T10:12:20;9.40;;;7.57;;
4290;SDS011;2159;50.906;7.152;2023-08-17T10:14:55;10.70;;;8.13;;
4290;SDS011;2159;50.906;7.152;2023-08-17T10:17:27;8.70;;;7.80;;
4290;SDS011;2159;50.906;7.152;2023-08-17T10:19:57;11.40;;;7.43;;
4290;SDS011;2159;50.906;7.152;2023-08-17T10:22:26;14.33;;;8.17;;
4290;SDS011;2159;50.906;7.152;2023-08-17T10:24:55;12.73;;;9.00;;
4290;SDS011;2159;50.906;7.152;2023-08-17T10:27:24;12.90;;;8.60;;
4290;SDS011;2159;50.906;7.152;2023-08-17T10:29:52;13.07;;;9.77;;
4290;SDS011;2159;50.906;7.152;2023-08-17T10:32:21;10.80;;;9.07;;
4290;SDS011;2159;50.906;7.152;2023-08-17T10:34:50;9.83;;;8.83;;
4290;SDS011;2159;50.906;7.152;2023-08-17T10:37:18;12.50;;;8.50;;
4290;SDS011;2159;50.906;7.152;2023-08-17T10:39:47;16.37;;;8.33;;
4290;SDS011;2159;50.906;7.152;2023-08-17T10:42:14;13.50;;;8.20;;
4290;SDS011;2159;50.906;7.152;2023-08-17T10:44:47;8.83;;;7.80;;
4290;SDS011;2159;50.906;7.152;2023-08-17T10:47:24;14.57;;;8.83;;
4290;SDS011;2159;50.906;7.152;2023-08-17T10:49:55;10.80;;;7.60;;
4290;SDS011;2159;50.906;7.152;2023-08-17T10:52:29;10.50;;;7.70;;
4290;SDS011;2159;50.906;7.152;2023-08-17T10:54:58;8.20;;;7.40;;
4290;SDS011;2159;50.906;7.152;2023-08-17T10:57:30;10.47;;;7.97;;
4290;SDS011;2159;50.906;7.152;2023-08-17T11:00:04;11.70;;;8.57;;
4290;SDS011;2159;50.906;7.152;2023-08-17T11:02:34;11.00;;;8.40;;
4290;SDS011;2159;50.906;7.152;2023-08-17T11:05:04;12.97;;;7.83;;
4290;SDS011;2159;50.906;7.152;2023-08-17T11:07:38;10.07;;;7.20;;
4290;SDS011;2159;50.906;7.152;2023-08-17T11:10:12;8.90;;;6.70;;
4290;SDS011;2159;50.906;7.152;2023-08-17T11:12:41;12.97;;;7.10;;
4290;SDS011;2159;50.906;7.152;2023-08-17T11:15:08;8.23;;;7.30;;
4290;SDS011;2159;50.906;7.152;2023-08-17T11:17:36;7.93;;;6.40;;
4290;SDS011;2159;50.906;7.152;2023-08-17T11:20:06;9.03;;;6.43;;
4290;SDS011;2159;50.906;7.152;2023-08-17T11:22:40;7.57;;;6.77;;
4290;SDS011;2159;50.906;7.152;2023-08-17T11:25:08;7.20;;;6.50;;
4290;SDS011;2159;50.906;7.152;2023-08-17T11:27:35;9.20;;;6.50;;
4290;SDS011;2159;50.906;7.152;2023-08-17T11:30:05;7.33;;;6.60;;
4290;SDS011;2159;50.906;7.152;2023-08-17T11:32:32;8.87;;;6.80;;
4290;SDS011;2159;50.906;7.152;2023-08-17T11:35:00;6.80;;;6.20;;
4290;SDS011;2159;50.906;7.152;2023-08-17T11:37:29;7.90;;;6.80;;
4290;SDS011;2159;50.906;7.152;2023-08-17T11:39:56;7.50;;;6.67;;
4290;SDS011;2159;50.906;7.152;2023-08-17T11:42:24;6.93;;;5.87;;
4290;SDS011;2159;50.906;7.152;2023-08-17T11:44:52;6.43;;;5.80;;
4290;SDS011;2159;50.906;7.152;2023-08-17T11:47:20;6.17;;;5.57;;
4290;SDS011;2159;50.906;7.152;2023-08-17T11:49:48;6.13;;;5.40;;
4290;SDS011;2159;50.906;7.152;2023-08-17T11:52:16;6.60;;;5.90;;
4290;SDS011;2159;50.906;7.152;2023-08-17T11:54:45;9.57;;;6.60;;
4290;SDS011;2159;50.906;7.152;2023-08-17T11:57:17;7.80;;;6.00;;
4290;SDS011;2159;50.906;7.152;2023-08-17T11:59:45;7.53;;;6.73;;
4290;SDS011;2159;50.906;7.152;2023-08-17T12:02:12;7.20;;;6.43;;
4290;SDS011;2159;50.906;7.152;2023-08-17T12:04:40;7.10;;;6.23;;
4290;SDS011;2159;50.906;7.152;2023-08-17T12:07:07;6.83;;;6.10;;
4290;SDS011;2159;50.906;7.152;2023-08-17T12:09:35;7.87;;;6.23;;
4290;SDS011;2159;50.906;7.152;2023-08-17T12:12:04;5.97;;;5.47;;
4290;SDS011;2159;50.906;7.152;2023-08-17T12:14:31;7.23;;;6.30;;
4290;SDS011;2159;50.906;7.152;2023-08-17T12:16:59;6.97;;;5.53;;
4290;SDS011;2159;50.906;7.152;2023-08-17T12:19:26;6.60;;;5.43;;
4290;SDS011;2159;50.906;7.152;2023-08-17T12:21:54;7.80;;;6.00;;
4290;SDS011;2159;50.906;7.152;2023-08-17T12:24:23;7.63;;;6.00;;
4290;SDS011;2159;50.906;7.152;2023-08-17T12:26:50;6.73;;;5.70;;
4290;SDS011;2159;50.906;7.152;2023-08-17T12:29:21;8.30;;;6.53;;
4290;SDS011;2159;50.906;7.152;2023-08-17T12:31:51;7.17;;;6.40;;
4290;SDS011;2159;50.906;7.152;2023-08-17T12:34:18;7.37;;;6.50;;
4290;SDS011;2159;50.906;7.152;2023-08-17T12:36:46;6.23;;;5.63;;
4290;SDS011;2159;50.906;7.152;2023-08-17T12:39:15;9.33;;;6.40;;
4290;SDS011;2159;50.906;7.152;2023-08-17T12:41:43;8.27;;;6.00;;
4290;SDS011;2159;50.906;7.152;2023-08-17T12:44:11;10.60;;;6.00;;
4290;SDS011;2159;50.906;7.152;2023-08-17T12:46:44;7.43;;;5.37;;
4290;SDS011;2159;50.906;7.152;2023-08-17T12:49:12;10.30;;;6.00;;
4290;SDS011;2159;50.906;7.152;2023-08-17T12:51:39;9.93;;;5.90;;
4290;SDS011;2159;50.906;7.152;2023-08-17T12:54:11;6.87;;;6.10;;
4290;SDS011;2159;50.906;7.152;2023-08-17T12:56:38;7.30;;;6.60;;
4290;SDS011;2159;50.906;7.152;2023-08-17T12:59:06;6.93;;;6.10;;
4290;SDS011;2159;50.906;7.152;2023-08-17T13:01:33;7.00;;;6.30;;
4290;SDS011;2159;50.906;7.152;2023-08-17T13:04:03;7.07;;;6.37;;
4290;SDS011;2159;50.906;7.152;2023-08-17T13:06:30;6.93;;;6.30;;
4290;SDS011;2159;50.906;7.152;2023-08-17T13:09:14;9.20;;;7.10;;
4290;SDS011;2159;50.906;7.152;2023-08-17T13:11:42;12.80;;;7.93;;
4290;SDS011;2159;50.906;7.152;2023-08-17T13:14:09;7.63;;;6.73;;
4290;SDS011;2159;50.906;7.152;2023-08-17T13:16:37;7.20;;;6.47;;
4290;SDS011;2159;50.906;7.152;2023-08-17T13:19:06;7.53;;;6.77;;
4290;SDS011;2159;50.906;7.152;2023-08-17T13:21:33;8.63;;;6.00;;
4290;SDS011;2159;50.906;7.152;2023-08-17T13:24:01;8.40;;;6.73;;
4290;SDS011;2159;50.906;7.152;2023-08-17T13:26:29;7.00;;;6.20;;
4290;SDS011;2159;50.906;7.152;2023-08-17T13:28:57;6.23;;;5.73;;
4290;SDS011;2159;50.906;7.152;2023-08-17T13:31:24;6.47;;;5.87;;
4290;SDS011;2159;50.906;7.152;2023-08-17T13:33:51;6.93;;;6.20;;
4290;SDS011;2159;50.906;7.152;2023-08-17T13:36:21;7.80;;;6.10;;
4290;SDS011;2159;50.906;7.152;2023-08-17T13:38:48;7.37;;;6.07;;
4290;SDS011;2159;50.906;7.152;2023-08-17T13:41:16;7.23;;;6.40;;
4290;SDS011;2159;50.906;7.152;2023-08-17T13:43:43;8.17;;;6.63;;
4290;SDS011;2159;50.906;7.152;2023-08-17T13:46:11;8.30;;;6.50;;
4290;SDS011;2159;50.906;7.152;2023-08-17T13:48:39;6.80;;;6.20;;
4290;SDS011;2159;50.906;7.152;2023-08-17T13:51:07;7.27;;;6.57;;
4290;SDS011;2159;50.906;7.152;2023-08-17T13:53:36;8.33;;;6.57;;
4290;SDS011;2159;50.906;7.152;2023-08-17T13:56:04;6.37;;;5.77;;
4290;SDS011;2159;50.906;7.152;2023-08-17T13:58:31;7.83;;;5.93;;
4290;SDS011;2159;50.906;7.152;2023-08-17T14:00:59;8.40;;;6.80;;
4290;SDS011;2159;50.906;7.152;2023-08-17T14:03:26;11.03;;;6.60;;
4290;SDS011;2159;50.906;7.152;2023-08-17T14:05:54;7.67;;;6.33;;
4290;SDS011;2159;50.906;7.152;2023-08-17T14:08:22;7.80;;;7.10;;
4290;SDS011;2159;50.906;7.152;2023-08-17T14:10:51;9.47;;;6.77;;
4290;SDS011;2159;50.906;7.152;2023-08-17T14:13:18;7.47;;;6.20;;
4290;SDS011;2159;50.906;7.152;2023-08-17T14:15:46;7.93;;;6.60;;
4290;SDS011;2159;50.906;7.152;2023-08-17T14:18:13;10.03;;;6.77;;
4290;SDS011;2159;50.906;7.152;2023-08-17T14:20:41;7.73;;;6.17;;
4290;SDS011;2159;50.906;7.152;2023-08-17T14:23:08;7.50;;;6.10;;
4290;SDS011;2159;50.906;7.152;2023-08-17T14:25:36;11.33;;;6.23;;
4290;SDS011;2159;50.906;7.152;2023-08-17T14:28:05;6.33;;;5.73;;
4290;SDS011;2159;50.906;7.152;2023-08-17T14:30:33;8.53;;;6.47;;
4290;SDS011;2159;50.906;7.152;2023-08-17T14:33:01;9.50;;;6.27;;
4290;SDS011;2159;50.906;7.152;2023-08-17T14:35:29;7.17;;;5.93;;
4290;SDS011;2159;50.906;7.152;2023-08-17T14:37:56;7.83;;;6.17;;
4290;SDS011;2159;50.906;7.152;2023-08-17T14:40:27;6.50;;;5.60;;
4290;SDS011;2159;50.906;7.152;2023-08-17T14:42:54;6.30;;;5.70;;
4290;SDS011;2159;50.906;7.152;2023-08-17T14:45:23;6.90;;;5.97;;
4290;SDS011;2159;50.906;7.152;2023-08-17T14:47:51;7.30;;;6.50;;
4290;SDS011;2159;50.906;7.152;2023-08-17T14:50:18;9.77;;;6.73;;
4290;SDS011;2159;50.906;7.152;2023-08-17T14:52:46;8.90;;;6.30;;
4290;SDS011;2159;50.906;7.152;2023-08-17T14:55:13;6.23;;;5.57;;
4290;SDS011;2159;50.906;7.152;2023-08-17T14:57:40;6.97;;;6.23;;
4290;SDS011;2159;50.906;7.152;2023-08-17T15:00:08;7.87;;;6.10;;
4290;SDS011;2159;50.906;7.152;2023-08-17T15:02:43;6.93;;;6.30;;
4290;SDS011;2159;50.906;7.152;2023-08-17T15:05:11;6.83;;;6.20;;
4290;SDS011;2159;50.906;7.152;2023-08-17T15:07:39;8.27;;;6.20;;
4290;SDS011;2159;50.906;7.152;2023-08-17T15:10:06;6.40;;;5.60;;
4290;SDS011;2159;50.906;7.152;2023-08-17T15:12:34;8.57;;;6.13;;
4290;SDS011;2159;50.906;7.152;2023-08-17T15:15:01;7.07;;;6.17;;
4290;SDS011;2159;50.906;7.152;2023-08-17T15:17:29;6.10;;;5.50;;